createdAt,value
2019-05-11T00:00:42.063Z,10.48
2019-05-11T00:01:42.036Z,10.48
2019-05-11T00:02:42.043Z,10.51
2019-05-11T00:03:42.050Z,10.47
2019-05-11T00:04:42.017Z,10.48
2019-05-11T00:05:42.001Z,10.52
2019-05-11T00:06:41.990Z,10.52
2019-05-11T00:07:42.000Z,10.48
2019-05-11T00:08:41.972Z,10.51
2019-05-11T00:09:56.964Z,10.45
2019-05-11T00:10:42.945Z,10.44
2019-05-11T00:11:41.965Z,10.44
2019-05-11T00:12:41.958Z,10.38
2019-05-11T00:13:41.936Z,10.41
2019-05-11T00:14:41.907Z,10.45
2019-05-11T00:15:41.895Z,10.38
2019-05-11T00:16:41.886Z,10.45
2019-05-11T00:17:41.891Z,10.42
2019-05-11T00:18:41.893Z,10.44
2019-05-11T00:19:41.849Z,10.41
2019-05-11T00:20:41.859Z,10.38
2019-05-11T00:21:41.829Z,10.34
2019-05-11T00:22:41.817Z,10.38
2019-05-11T00:23:41.818Z,10.38
2019-05-11T00:24:41.796Z,10.40
2019-05-11T00:25:41.789Z,10.47
2019-05-11T00:26:41.776Z,10.40
2019-05-11T00:27:41.763Z,10.33
2019-05-11T00:28:41.772Z,10.40
2019-05-11T00:29:41.767Z,10.42
2019-05-11T00:30:41.732Z,10.41
2019-05-11T00:31:41.738Z,10.33
2019-05-11T00:32:41.710Z,10.33
2019-05-11T00:33:41.720Z,10.32
2019-05-11T00:34:41.694Z,10.34
2019-05-11T00:35:41.691Z,10.32
2019-05-11T00:36:41.696Z,10.26
2019-05-11T00:37:41.653Z,10.23
2019-05-11T00:38:41.710Z,10.30
2019-05-11T00:39:41.640Z,10.29
2019-05-11T00:40:41.619Z,10.22
2019-05-11T00:41:41.615Z,10.26
2019-05-11T00:42:41.603Z,10.30
2019-05-11T00:43:41.610Z,10.30
2019-05-11T00:44:41.588Z,10.27
2019-05-11T00:45:41.569Z,10.27
2019-05-11T00:46:41.565Z,10.25
2019-05-11T00:47:41.559Z,10.25
2019-05-11T00:48:41.547Z,10.33
2019-05-11T00:49:41.529Z,10.23
2019-05-11T00:50:41.527Z,10.25
2019-05-11T00:51:41.506Z,10.23
2019-05-11T00:52:41.489Z,10.17
2019-05-11T00:53:41.507Z,10.23
2019-05-11T00:54:41.495Z,10.22
2019-05-11T00:55:41.467Z,10.26
2019-05-11T00:56:41.452Z,10.25
2019-05-11T00:57:41.454Z,10.23
2019-05-11T00:58:41.442Z,10.17
2019-05-11T00:59:41.444Z,10.26
2019-05-11T01:00:41.412Z,10.23
2019-05-11T01:01:41.407Z,10.26
2019-05-11T01:02:41.390Z,10.29
2019-05-11T01:03:41.394Z,10.27
2019-05-11T01:04:41.378Z,10.30
2019-05-11T01:05:41.362Z,10.26
2019-05-11T01:06:41.351Z,10.30
2019-05-11T01:07:41.335Z,10.23
2019-05-11T01:08:41.343Z,10.32
2019-05-11T01:09:41.309Z,10.25
2019-05-11T01:10:42.653Z,10.27
2019-05-11T01:11:41.288Z,10.22
2019-05-11T01:12:41.300Z,10.27
2019-05-11T01:13:41.444Z,10.23
2019-05-11T01:14:41.258Z,10.27
2019-05-11T01:15:41.257Z,10.25
2019-05-11T01:16:41.245Z,10.27
2019-05-11T01:17:41.234Z,10.20
2019-05-11T01:18:41.230Z,10.26
2019-05-11T01:19:41.208Z,10.25
2019-05-11T01:20:41.205Z,10.30
2019-05-11T01:21:41.189Z,10.23
2019-05-11T01:22:41.203Z,10.22
2019-05-11T01:23:41.193Z,10.22
2019-05-11T01:24:41.148Z,10.18
2019-05-11T01:25:41.147Z,10.12
2019-05-11T01:26:41.135Z,10.18
2019-05-11T01:27:41.120Z,10.18
2019-05-11T01:28:41.114Z,10.14
2019-05-11T01:29:41.110Z,10.18
2019-05-11T01:30:41.097Z,10.17
2019-05-11T01:31:41.082Z,10.14
2019-05-11T01:32:41.065Z,10.12
2019-05-11T01:33:41.068Z,10.11
2019-05-11T01:34:41.064Z,10.09
2019-05-11T01:35:41.046Z,10.12
2019-05-11T01:36:41.025Z,10.07
2019-05-11T01:37:41.008Z,10.11
2019-05-11T01:38:41.009Z,10.08
2019-05-11T01:39:41.197Z,10.07
2019-05-11T01:40:40.983Z,10.04
2019-05-11T01:41:40.966Z,10.04
2019-05-11T01:42:40.961Z,10.02
2019-05-11T01:43:40.971Z,10.04
2019-05-11T01:44:40.954Z,10.07
2019-05-11T01:45:40.960Z,10.05
2019-05-11T01:46:40.927Z,10.07
2019-05-11T01:47:40.941Z,10.02
2019-05-11T01:48:40.895Z,9.99
2019-05-11T01:49:40.921Z,9.91
2019-05-11T01:50:40.884Z,10.04
2019-05-11T01:51:40.859Z,9.99
2019-05-11T01:52:40.866Z,10.09
2019-05-11T01:53:40.851Z,10.02
2019-05-11T01:54:40.852Z,10.04
2019-05-11T01:55:40.818Z,10.07
2019-05-11T01:56:40.810Z,10.09
2019-05-11T01:57:40.799Z,10.07
2019-05-11T01:58:40.809Z,10.02
2019-05-11T01:59:40.802Z,10.07
2019-05-11T02:00:40.784Z,10.08
2019-05-11T02:01:40.758Z,10.09
2019-05-11T02:02:40.740Z,10.07
2019-05-11T02:03:40.736Z,10.08
2019-05-11T02:04:40.741Z,10.17
2019-05-11T02:05:40.719Z,10.08
2019-05-11T02:06:40.702Z,10.14
2019-05-11T02:07:40.695Z,10.11
2019-05-11T02:08:40.719Z,10.11
2019-05-11T02:09:40.689Z,10.14
2019-05-11T02:10:40.654Z,10.12
2019-05-11T02:11:40.650Z,10.08
2019-05-11T02:12:40.640Z,10.09
2019-05-11T02:13:40.638Z,10.04
2019-05-11T02:14:40.619Z,10.15
2019-05-11T02:15:40.617Z,10.09
2019-05-11T02:16:40.593Z,10.15
2019-05-11T02:17:40.593Z,10.12
2019-05-11T02:18:40.581Z,10.09
2019-05-11T02:19:40.566Z,10.15
2019-05-11T02:20:40.573Z,10.09
2019-05-11T02:21:40.561Z,10.17
2019-05-11T02:22:40.527Z,10.18
2019-05-11T02:23:40.518Z,10.17
2019-05-11T02:24:40.512Z,10.18
2019-05-11T02:25:40.530Z,10.17
2019-05-11T02:26:40.490Z,10.17
2019-05-11T02:27:40.474Z,10.12
2019-05-11T02:28:40.465Z,10.18
2019-05-11T02:29:41.641Z,10.22
2019-05-11T02:30:40.474Z,10.12
2019-05-11T02:31:40.456Z,10.09
2019-05-11T02:32:40.424Z,10.11
2019-05-11T02:33:40.417Z,10.07
2019-05-11T02:34:40.402Z,10.11
2019-05-11T02:35:40.589Z,10.11
2019-05-11T02:36:40.387Z,10.09
2019-05-11T02:37:40.369Z,10.01
2019-05-11T02:38:40.371Z,10.05
2019-05-11T02:39:40.353Z,10.01
2019-05-11T02:40:40.355Z,9.97
2019-05-11T02:41:40.340Z,10.07
2019-05-11T02:42:40.328Z,10.04
2019-05-11T02:43:40.316Z,10.07
2019-05-11T02:44:40.324Z,10.04
2019-05-11T02:45:40.301Z,10.11
2019-05-11T02:46:40.270Z,10.04
2019-05-11T02:47:40.271Z,9.93
2019-05-11T02:48:40.252Z,10.01
2019-05-11T02:49:40.247Z,9.94
2019-05-11T02:50:40.250Z,9.96
2019-05-11T02:51:40.225Z,9.99
2019-05-11T02:52:40.213Z,9.90
2019-05-11T02:53:40.204Z,9.94
2019-05-11T02:54:40.216Z,9.97
2019-05-11T02:55:40.192Z,10.02
2019-05-11T02:56:40.166Z,9.91
2019-05-11T02:57:40.158Z,10.07
2019-05-11T02:58:40.150Z,10.11
2019-05-11T02:59:40.143Z,10.09
2019-05-11T03:00:40.294Z,10.02
2019-05-11T03:01:40.133Z,9.97
2019-05-11T03:02:40.112Z,9.97
2019-05-11T03:03:40.094Z,10.04
2019-05-11T03:04:40.122Z,9.96
2019-05-11T03:05:40.100Z,9.97
2019-05-11T03:06:40.056Z,10.01
2019-05-11T03:07:40.060Z,9.97
2019-05-11T03:08:40.045Z,9.96
2019-05-11T03:09:40.026Z,9.93
2019-05-11T03:10:40.207Z,9.93
2019-05-11T03:11:55.131Z,9.97
2019-05-11T03:12:41.015Z,9.97
2019-05-11T03:13:39.983Z,9.99
2019-05-11T03:14:39.975Z,9.94
2019-05-11T03:15:39.990Z,9.90
2019-05-11T03:16:39.973Z,9.89
2019-05-11T03:17:39.962Z,9.99
2019-05-11T03:18:39.935Z,9.93
2019-05-11T03:19:39.926Z,9.96
2019-05-11T03:20:39.994Z,9.89
2019-05-11T03:21:39.899Z,9.94
2019-05-11T03:22:39.890Z,9.96
2019-05-11T03:23:39.883Z,9.94
2019-05-11T03:24:39.873Z,9.96
2019-05-11T03:25:39.863Z,9.99
2019-05-11T03:26:39.918Z,9.96
2019-05-11T03:27:39.838Z,9.96
2019-05-11T03:28:39.842Z,9.90
2019-05-11T03:29:39.819Z,10.01
2019-05-11T03:30:39.848Z,10.07
2019-05-11T03:31:39.818Z,9.94
2019-05-11T03:32:39.787Z,9.93
2019-05-11T03:33:39.786Z,9.97
2019-05-11T03:34:39.769Z,9.86
2019-05-11T03:35:39.765Z,9.84
2019-05-11T03:36:39.768Z,9.90
2019-05-11T03:37:39.723Z,9.81
2019-05-11T03:38:39.711Z,9.81
2019-05-11T03:39:39.713Z,9.84
2019-05-11T03:40:39.711Z,9.89
2019-05-11T03:41:39.706Z,9.83
2019-05-11T03:42:39.674Z,9.78
2019-05-11T03:43:39.666Z,9.81
2019-05-11T03:44:39.650Z,9.81
2019-05-11T03:45:39.652Z,9.81
2019-05-11T03:46:39.639Z,9.75
2019-05-11T03:47:39.643Z,9.84
2019-05-11T03:48:39.610Z,9.79
2019-05-11T03:49:39.599Z,9.89
2019-05-11T03:50:39.587Z,9.83
2019-05-11T03:51:39.591Z,9.87
2019-05-11T03:52:39.578Z,9.87
2019-05-11T03:53:39.575Z,9.83
2019-05-11T03:54:39.544Z,9.81
2019-05-11T03:55:39.536Z,9.79
2019-05-11T03:56:39.546Z,9.84
2019-05-11T03:57:39.514Z,9.81
2019-05-11T03:58:39.495Z,9.81
2019-05-11T03:59:39.492Z,9.78
2019-05-11T04:00:39.517Z,9.78
2019-05-11T04:01:39.486Z,9.78
2019-05-11T04:02:39.466Z,9.72
2019-05-11T04:03:39.469Z,9.75
2019-05-11T04:04:39.439Z,9.76
2019-05-11T04:05:39.495Z,9.72
2019-05-11T04:06:39.434Z,9.72
2019-05-11T04:07:39.404Z,9.65
2019-05-11T04:08:39.392Z,9.65
2019-05-11T04:09:39.402Z,9.58
2019-05-11T04:10:39.409Z,9.66
2019-05-11T04:11:39.369Z,9.68
2019-05-11T04:12:39.353Z,9.66
2019-05-11T04:13:39.338Z,9.69
2019-05-11T04:14:39.332Z,9.60
2019-05-11T04:15:39.327Z,9.57
2019-05-11T04:16:39.332Z,9.60
2019-05-11T04:17:39.289Z,9.60
2019-05-11T04:18:39.290Z,9.58
2019-05-11T04:19:39.274Z,9.57
2019-05-11T04:20:39.262Z,9.71
2019-05-11T04:21:39.265Z,9.61
2019-05-11T04:22:39.233Z,9.68
2019-05-11T04:23:39.224Z,9.76
2019-05-11T04:24:39.214Z,9.78
2019-05-11T04:25:39.220Z,9.71
2019-05-11T04:26:39.222Z,9.72
2019-05-11T04:27:39.206Z,9.74
2019-05-11T04:28:39.173Z,9.76
2019-05-11T04:29:39.162Z,9.69
2019-05-11T04:30:39.146Z,9.76
2019-05-11T04:31:39.140Z,9.68
2019-05-11T04:32:39.149Z,9.64
2019-05-11T04:33:39.140Z,9.61
2019-05-11T04:34:39.114Z,9.66
2019-05-11T04:35:39.099Z,9.58
2019-05-11T04:36:39.114Z,9.64
2019-05-11T04:37:39.095Z,9.61
2019-05-11T04:38:39.084Z,9.54
2019-05-11T04:39:39.073Z,9.58
2019-05-11T04:40:39.044Z,9.50
2019-05-11T04:41:39.044Z,9.66
2019-05-11T04:42:54.231Z,9.60
2019-05-11T04:43:40.019Z,9.58
2019-05-11T04:44:39.002Z,9.58
2019-05-11T04:45:38.995Z,9.54
2019-05-11T04:46:38.987Z,9.60
2019-05-11T04:47:38.996Z,9.56
2019-05-11T04:48:38.962Z,9.66
2019-05-11T04:49:38.965Z,9.57
2019-05-11T04:50:38.966Z,9.57
2019-05-11T04:51:38.923Z,9.50
2019-05-11T04:52:38.939Z,9.50
2019-05-11T04:53:38.907Z,9.53
2019-05-11T04:54:38.894Z,9.46
2019-05-11T04:55:38.874Z,9.54
2019-05-11T04:56:38.881Z,9.43
2019-05-11T04:57:38.888Z,9.56
2019-05-11T04:58:38.856Z,9.51
2019-05-11T04:59:38.843Z,9.53
2019-05-11T05:00:38.835Z,9.46
2019-05-11T05:01:38.824Z,9.48
2019-05-11T05:02:38.838Z,9.47
2019-05-11T05:03:41.134Z,9.53
2019-05-11T05:04:38.783Z,9.50
2019-05-11T05:05:38.771Z,9.48
2019-05-11T05:06:39.094Z,9.58
2019-05-11T05:07:47.714Z,9.61
2019-05-11T05:08:39.734Z,9.50
2019-05-11T05:09:42.570Z,9.64
2019-05-11T05:10:39.745Z,9.50
2019-05-11T05:11:38.719Z,9.65
2019-05-11T05:12:38.712Z,9.51
2019-05-11T05:13:38.685Z,9.69
2019-05-11T05:14:38.677Z,9.60
2019-05-11T05:15:38.660Z,9.60
2019-05-11T05:16:38.653Z,9.51
2019-05-11T05:17:38.657Z,9.46
2019-05-11T05:18:38.635Z,9.61
2019-05-11T05:19:38.634Z,9.64
2019-05-11T05:20:38.610Z,9.64
2019-05-11T05:21:38.613Z,9.66
2019-05-11T05:22:38.633Z,9.56
2019-05-11T05:23:38.583Z,9.64
2019-05-11T05:24:38.577Z,9.58
2019-05-11T05:25:38.570Z,9.60
2019-05-11T05:26:38.549Z,9.60
2019-05-11T05:27:38.531Z,9.71
2019-05-11T05:28:38.556Z,9.76
2019-05-11T05:29:38.518Z,9.74
2019-05-11T05:30:38.513Z,9.69
2019-05-11T05:31:38.493Z,9.68
2019-05-11T05:32:38.492Z,9.72
2019-05-11T05:33:38.480Z,9.76
2019-05-11T05:34:38.459Z,9.69
2019-05-11T05:35:38.465Z,9.68
2019-05-11T05:36:38.451Z,9.58
2019-05-11T05:37:38.437Z,9.65
2019-05-11T05:38:38.441Z,9.58
2019-05-11T05:39:38.402Z,9.64
2019-05-11T05:40:38.388Z,9.74
2019-05-11T05:41:38.813Z,9.64
2019-05-11T05:42:38.377Z,9.72
2019-05-11T05:43:38.385Z,9.72
2019-05-11T05:44:38.355Z,9.74
2019-05-11T05:45:38.335Z,9.66
2019-05-11T05:46:38.321Z,9.66
2019-05-11T05:47:38.323Z,9.66
2019-05-11T05:48:38.334Z,9.66
2019-05-11T05:49:38.307Z,9.60
2019-05-11T05:50:38.285Z,9.64
2019-05-11T05:51:38.279Z,9.60
2019-05-11T05:52:38.270Z,9.71
2019-05-11T05:53:38.273Z,9.61
2019-05-11T05:54:38.240Z,9.74
2019-05-11T05:55:38.236Z,9.57
2019-05-11T05:56:38.225Z,9.61
2019-05-11T05:57:38.209Z,9.69
2019-05-11T05:58:38.225Z,9.71
2019-05-11T05:59:38.199Z,9.61
2019-05-11T06:00:38.185Z,9.57
2019-05-11T06:01:38.177Z,9.60
2019-05-11T06:02:38.161Z,9.51
2019-05-11T06:03:38.165Z,9.50
2019-05-11T06:04:38.147Z,9.53
2019-05-11T06:05:38.188Z,9.53
2019-05-11T06:06:38.165Z,9.47
2019-05-11T06:07:38.154Z,9.43
2019-05-11T06:08:38.102Z,9.42
2019-05-11T06:09:38.090Z,9.48
2019-05-11T06:10:38.084Z,9.38
2019-05-11T06:11:38.082Z,9.33
2019-05-11T06:12:38.041Z,9.42
2019-05-11T06:13:44.989Z,9.43
2019-05-11T06:14:39.033Z,9.32
2019-05-11T06:15:38.021Z,9.40
2019-05-11T06:16:38.014Z,9.50
2019-05-11T06:17:37.989Z,9.39
2019-05-11T06:18:38.001Z,9.48
2019-05-11T06:19:37.967Z,9.57
2019-05-11T06:20:37.955Z,9.46
2019-05-11T06:21:37.976Z,9.51
2019-05-11T06:22:37.951Z,9.40
2019-05-11T06:23:38.094Z,9.53
2019-05-11T06:24:37.925Z,9.47
2019-05-11T06:25:37.915Z,9.48
2019-05-11T06:26:37.895Z,9.50
2019-05-11T06:27:37.897Z,9.51
2019-05-11T06:28:37.906Z,9.50
2019-05-11T06:29:37.860Z,9.47
2019-05-11T06:30:37.855Z,9.42
2019-05-11T06:31:37.841Z,9.50
2019-05-11T06:32:37.828Z,9.57
2019-05-11T06:33:37.840Z,9.57
2019-05-11T06:34:37.818Z,9.50
2019-05-11T06:35:37.794Z,9.54
2019-05-11T06:36:37.792Z,9.57
2019-05-11T06:37:37.769Z,9.57
2019-05-11T06:38:37.775Z,9.51
2019-05-11T06:39:37.758Z,9.61
2019-05-11T06:40:37.750Z,9.60
2019-05-11T06:41:37.732Z,9.71
2019-05-11T06:42:37.721Z,9.60
2019-05-11T06:43:37.732Z,9.76
2019-05-11T06:44:37.717Z,9.66
2019-05-11T06:45:37.691Z,9.68
2019-05-11T06:46:37.676Z,9.79
2019-05-11T06:47:37.717Z,9.71
2019-05-11T06:48:37.659Z,9.66
2019-05-11T06:49:37.658Z,9.75
2019-05-11T06:50:37.635Z,9.83
2019-05-11T06:51:40.353Z,9.74
2019-05-11T06:52:37.627Z,9.83
2019-05-11T06:53:37.617Z,9.76
2019-05-11T06:54:37.648Z,9.83
2019-05-11T06:55:37.584Z,9.87
2019-05-11T06:56:37.578Z,9.86
2019-05-11T06:57:37.566Z,9.89
2019-05-11T06:58:37.551Z,9.89
2019-05-11T06:59:37.558Z,9.90
2019-05-11T07:00:37.537Z,9.84
2019-05-11T07:01:37.510Z,9.81
2019-05-11T07:02:37.616Z,9.96
2019-05-11T07:03:37.513Z,9.99
2019-05-11T07:04:37.624Z,9.89
2019-05-11T07:05:37.499Z,9.99
2019-05-11T07:06:37.495Z,9.99
2019-05-11T07:07:47.146Z,9.96
2019-05-11T07:08:38.457Z,9.97
2019-05-11T07:09:37.495Z,10.04
2019-05-11T07:10:37.712Z,10.02
2019-05-11T07:11:37.454Z,9.97
2019-05-11T07:12:37.406Z,10.01
2019-05-11T07:13:37.454Z,10.07
2019-05-11T07:14:37.434Z,10.05
2019-05-11T07:15:37.366Z,10.02
2019-05-11T07:16:37.368Z,10.02
2019-05-11T07:17:37.390Z,9.89
2019-05-11T07:18:37.366Z,9.93
2019-05-11T07:19:37.384Z,9.87
2019-05-11T07:20:49.498Z,9.93
2019-05-11T07:21:38.296Z,9.96
2019-05-11T07:22:37.289Z,9.83
2019-05-11T07:23:37.288Z,9.90
2019-05-11T07:24:37.305Z,9.84
2019-05-11T07:25:37.285Z,9.78
2019-05-11T07:26:37.251Z,9.79
2019-05-11T07:27:37.245Z,9.81
2019-05-11T07:28:37.248Z,9.71
2019-05-11T07:29:37.248Z,9.79
2019-05-11T07:30:37.268Z,9.68
2019-05-11T07:31:37.209Z,9.83
2019-05-11T07:32:38.152Z,9.89
2019-05-11T07:33:37.984Z,9.79
2019-05-11T07:34:38.322Z,9.87
2019-05-11T07:35:38.487Z,9.96
2019-05-11T07:36:38.778Z,9.91
2019-05-11T07:37:38.496Z,9.89
2019-05-11T07:38:38.189Z,9.97
2019-05-11T07:39:38.321Z,10.01
2019-05-11T07:40:38.518Z,9.96
2019-05-11T07:41:38.665Z,9.97
2019-05-11T07:42:37.947Z,9.93
2019-05-11T07:43:38.049Z,9.94
2019-05-11T07:44:41.077Z,10.09
2019-05-11T07:45:38.665Z,10.12
2019-05-11T07:46:37.715Z,10.14
2019-05-11T07:47:38.003Z,10.05
2019-05-11T07:48:38.748Z,10.20
2019-05-11T07:49:38.267Z,10.32
2019-05-11T07:50:38.766Z,10.32
2019-05-11T07:51:38.925Z,10.52
2019-05-11T07:52:37.820Z,10.40
2019-05-11T07:53:38.126Z,10.38
2019-05-11T07:54:38.542Z,10.51
2019-05-11T07:55:38.553Z,10.55
2019-05-11T07:56:38.989Z,10.44
2019-05-11T07:57:39.000Z,10.40
2019-05-11T07:58:38.714Z,10.40
2019-05-11T07:59:38.208Z,10.47
2019-05-11T08:00:39.763Z,10.40
2019-05-11T08:01:38.626Z,10.53
2019-05-11T08:02:38.673Z,10.48
2019-05-11T08:03:38.932Z,10.51
2019-05-11T08:04:37.862Z,10.42
2019-05-11T08:05:38.577Z,10.36
2019-05-11T08:06:38.914Z,10.38
2019-05-11T08:07:37.839Z,10.41
2019-05-11T08:08:38.466Z,10.42
2019-05-11T08:09:38.057Z,10.42
2019-05-11T08:10:39.029Z,10.60
2019-05-11T08:11:38.839Z,10.56
2019-05-11T08:12:39.231Z,10.61
2019-05-11T08:13:38.826Z,10.73
2019-05-11T08:14:55.378Z,10.70
2019-05-11T08:15:38.355Z,10.74
2019-05-11T08:16:39.002Z,10.66
2019-05-11T08:17:38.099Z,10.63
2019-05-11T08:18:38.679Z,10.63
2019-05-11T08:19:38.422Z,10.82
2019-05-11T08:20:38.574Z,10.81
2019-05-11T08:21:38.682Z,10.73
2019-05-11T08:22:37.761Z,10.79
2019-05-11T08:23:37.707Z,10.88
2019-05-11T08:24:37.754Z,11.00
2019-05-11T08:25:37.928Z,11.04
2019-05-11T08:26:38.621Z,11.09
2019-05-11T08:27:37.882Z,11.06
2019-05-11T08:28:38.079Z,11.27
2019-05-11T08:29:38.379Z,11.18
2019-05-11T08:30:38.151Z,11.11
2019-05-11T08:31:38.556Z,11.09
2019-05-11T08:32:38.678Z,11.11
2019-05-11T08:33:38.696Z,11.11
2019-05-11T08:34:36.535Z,11.24
2019-05-11T08:35:38.787Z,11.33
2019-05-11T08:36:37.834Z,11.43
2019-05-11T08:37:38.554Z,11.27
2019-05-11T08:38:37.804Z,11.36
2019-05-11T08:39:37.961Z,11.33
2019-05-11T08:40:37.899Z,11.35
2019-05-11T08:41:38.406Z,11.28
2019-05-11T08:42:37.836Z,11.40
2019-05-11T08:43:38.682Z,11.18
2019-05-11T08:44:37.972Z,11.09
2019-05-11T08:45:36.415Z,11.21
2019-05-11T08:46:38.627Z,11.27
2019-05-11T08:47:37.707Z,11.07
2019-05-11T08:48:38.616Z,11.10
2019-05-11T08:49:38.102Z,11.06
2019-05-11T08:50:38.282Z,11.02
2019-05-11T08:51:38.621Z,11.02
2019-05-11T08:52:38.434Z,11.17
2019-05-11T08:53:38.565Z,11.15
2019-05-11T08:54:38.233Z,11.15
2019-05-11T08:55:38.214Z,11.15
2019-05-11T08:56:38.267Z,11.15
2019-05-11T08:57:38.524Z,11.33
2019-05-11T08:58:38.046Z,11.24
2019-05-11T08:59:38.073Z,11.43
2019-05-11T09:00:38.757Z,11.43
2019-05-11T09:01:36.257Z,11.44
2019-05-11T09:02:38.266Z,11.32
2019-05-11T09:03:38.565Z,11.28
2019-05-11T09:04:39.378Z,11.10
2019-05-11T09:05:38.468Z,11.19
2019-05-11T09:06:37.637Z,11.36
2019-05-11T09:07:38.315Z,11.37
2019-05-11T09:08:38.641Z,11.49
2019-05-11T09:09:38.044Z,11.47
2019-05-11T09:10:39.130Z,11.51
2019-05-11T09:11:36.120Z,11.65
2019-05-11T09:12:38.191Z,11.43
2019-05-11T09:13:36.102Z,11.44
2019-05-11T09:14:38.546Z,11.42
2019-05-11T09:15:39.807Z,11.46
2019-05-11T09:16:38.116Z,11.35
2019-05-11T09:17:38.157Z,11.39
2019-05-11T09:18:38.413Z,11.29
2019-05-11T09:19:36.036Z,11.19
2019-05-11T09:20:37.851Z,11.17
2019-05-11T09:21:38.195Z,11.17
2019-05-11T09:22:38.126Z,11.18
2019-05-11T09:23:38.272Z,11.22
2019-05-11T09:24:38.450Z,11.28
2019-05-11T09:25:38.315Z,11.33
2019-05-11T09:26:35.960Z,11.43
2019-05-11T09:27:37.607Z,11.55
2019-05-11T09:28:38.255Z,11.44
2019-05-11T09:29:35.921Z,11.36
2019-05-11T09:30:37.791Z,11.22
2019-05-11T09:31:38.006Z,11.28
2019-05-11T09:32:38.282Z,11.42
2019-05-11T09:33:35.880Z,11.58
2019-05-11T09:34:37.744Z,11.60
2019-05-11T09:35:47.561Z,11.69
2019-05-11T09:36:38.916Z,11.61
2019-05-11T09:37:38.000Z,11.69
2019-05-11T09:38:38.178Z,11.65
2019-05-11T09:39:37.896Z,11.52
2019-05-11T09:40:35.809Z,11.52
2019-05-11T09:41:38.091Z,11.51
2019-05-11T09:42:35.800Z,11.72
2019-05-11T09:43:37.647Z,11.37
2019-05-11T09:44:37.825Z,11.46
2019-05-11T09:45:45.778Z,11.55
2019-05-11T09:46:38.455Z,11.69
2019-05-11T09:47:35.722Z,11.72
2019-05-11T09:48:37.855Z,11.88
2019-05-11T09:49:46.405Z,11.86
2019-05-11T09:50:38.736Z,11.99
2019-05-11T09:51:37.823Z,12.09
2019-05-11T09:52:38.248Z,11.94
2019-05-11T09:53:35.672Z,11.94
2019-05-11T09:54:37.675Z,11.83
2019-05-11T09:55:35.646Z,11.70
2019-05-11T09:56:37.964Z,11.90
2019-05-11T09:57:37.997Z,11.82
2019-05-11T09:58:35.714Z,11.91
2019-05-11T09:59:35.600Z,11.96
2019-05-11T10:00:35.614Z,12.05
2019-05-11T10:01:37.692Z,12.04
2019-05-11T10:02:38.302Z,11.90
2019-05-11T10:03:35.573Z,11.70
2019-05-11T10:04:37.829Z,11.78
2019-05-11T10:05:35.535Z,11.95
2019-05-11T10:06:35.517Z,12.02
2019-05-11T10:07:37.817Z,12.12
2019-05-11T10:08:38.023Z,12.14
2019-05-11T10:09:35.508Z,12.01
2019-05-11T10:10:35.529Z,12.09
2019-05-11T10:11:35.463Z,12.14
2019-05-11T10:12:37.819Z,12.13
2019-05-11T10:13:35.481Z,12.12
2019-05-11T10:14:35.432Z,12.12
2019-05-11T10:15:35.426Z,12.09
2019-05-11T10:16:35.420Z,12.13
2019-05-11T10:17:35.397Z,12.05
2019-05-11T10:18:35.410Z,12.19
2019-05-11T10:19:35.380Z,12.31
2019-05-11T10:20:35.378Z,12.31
2019-05-11T10:21:35.361Z,12.21
2019-05-11T10:22:35.348Z,12.14
2019-05-11T10:23:35.350Z,12.19
2019-05-11T10:24:35.326Z,12.24
2019-05-11T10:25:35.310Z,12.24
2019-05-11T10:26:35.308Z,12.34
2019-05-11T10:27:35.289Z,12.42
2019-05-11T10:28:35.426Z,12.39
2019-05-11T10:29:35.269Z,12.23
2019-05-11T10:30:35.273Z,12.29
2019-05-11T10:31:35.245Z,12.14
2019-05-11T10:32:37.720Z,12.14
2019-05-11T10:33:35.249Z,12.14
2019-05-11T10:34:35.214Z,12.19
2019-05-11T10:35:37.675Z,11.82
2019-05-11T10:36:35.196Z,11.90
2019-05-11T10:37:35.176Z,11.82
2019-05-11T10:38:35.192Z,11.86
2019-05-11T10:39:35.167Z,12.12
2019-05-11T10:40:35.144Z,12.14
2019-05-11T10:41:35.141Z,12.05
2019-05-11T10:42:35.129Z,12.07
2019-05-11T10:43:35.139Z,12.14
2019-05-11T10:44:35.120Z,12.23
2019-05-11T10:45:35.099Z,12.05
2019-05-11T10:46:35.083Z,12.02
2019-05-11T10:47:35.075Z,11.94
2019-05-11T10:48:35.065Z,11.75
2019-05-11T10:49:35.066Z,11.78
2019-05-11T10:50:35.037Z,11.76
2019-05-11T10:51:35.029Z,11.73
2019-05-11T10:52:35.013Z,11.65
2019-05-11T10:53:35.031Z,11.82
2019-05-11T10:54:35.020Z,11.64
2019-05-11T10:55:34.987Z,11.78
2019-05-11T10:56:34.979Z,11.69
2019-05-11T10:57:34.966Z,11.75
2019-05-11T10:58:34.953Z,11.64
2019-05-11T10:59:34.964Z,11.69
2019-05-11T11:00:34.936Z,11.88
2019-05-11T11:01:34.916Z,12.02
2019-05-11T11:02:34.917Z,12.05
2019-05-11T11:03:34.897Z,11.98
2019-05-11T11:04:34.900Z,12.05
2019-05-11T11:05:34.880Z,12.20
2019-05-11T11:06:34.882Z,12.19
2019-05-11T11:07:34.858Z,12.19
2019-05-11T11:08:34.858Z,12.41
2019-05-11T11:09:34.860Z,12.50
2019-05-11T11:10:34.822Z,12.53
2019-05-11T11:11:34.810Z,12.67
2019-05-11T11:12:34.803Z,12.77
2019-05-11T11:13:34.793Z,12.64
2019-05-11T11:14:34.796Z,12.70
2019-05-11T11:15:34.769Z,12.83
2019-05-11T11:16:38.788Z,12.75
2019-05-11T11:17:37.971Z,12.70
2019-05-11T11:18:34.739Z,12.71
2019-05-11T11:19:34.751Z,12.72
2019-05-11T11:20:34.719Z,12.71
2019-05-11T11:21:34.700Z,12.68
2019-05-11T11:22:40.152Z,12.49
2019-05-11T11:23:35.680Z,12.53
2019-05-11T11:24:34.667Z,12.62
2019-05-11T11:25:34.682Z,12.57
2019-05-11T11:26:34.650Z,12.64
2019-05-11T11:27:34.641Z,12.67
2019-05-11T11:28:34.638Z,12.72
2019-05-11T11:29:34.636Z,12.78
2019-05-11T11:30:34.626Z,12.82
2019-05-11T11:31:34.597Z,12.72
2019-05-11T11:32:34.588Z,12.41
2019-05-11T11:33:34.580Z,12.38
2019-05-11T11:34:34.564Z,12.34
2019-05-11T11:35:34.570Z,12.23
2019-05-11T11:36:34.540Z,12.38
2019-05-11T11:37:34.541Z,12.50
2019-05-11T11:38:34.523Z,12.57
2019-05-11T11:39:34.526Z,12.49
2019-05-11T11:40:34.519Z,12.54
2019-05-11T11:41:34.491Z,12.45
2019-05-11T11:42:34.477Z,12.34
2019-05-11T11:43:34.465Z,12.41
2019-05-11T11:44:34.452Z,12.28
2019-05-11T11:45:34.479Z,12.38
2019-05-11T11:46:48.523Z,12.41
2019-05-11T11:47:35.453Z,12.57
2019-05-11T11:48:34.412Z,12.67
2019-05-11T11:49:34.405Z,12.92
2019-05-11T11:50:34.406Z,12.93
2019-05-11T11:51:34.390Z,12.95
2019-05-11T11:52:34.402Z,12.82
2019-05-11T11:53:34.355Z,12.83
2019-05-11T11:54:34.355Z,12.92
2019-05-11T11:55:34.351Z,12.97
2019-05-11T11:56:34.325Z,12.97
2019-05-11T11:57:34.318Z,13.01
2019-05-11T11:58:34.307Z,12.72
2019-05-11T11:59:34.298Z,12.53
2019-05-11T12:00:34.314Z,12.54
2019-05-11T12:01:34.267Z,12.46
2019-05-11T12:02:34.282Z,12.45
2019-05-11T12:03:34.263Z,12.39
2019-05-11T12:04:34.250Z,12.37
2019-05-11T12:05:34.229Z,12.24
2019-05-11T12:06:34.233Z,12.20
2019-05-11T12:07:34.206Z,12.16
2019-05-11T12:08:34.193Z,12.10
2019-05-11T12:09:34.191Z,12.04
2019-05-11T12:10:34.201Z,11.96
2019-05-11T12:11:34.183Z,11.96
2019-05-11T12:12:34.234Z,12.01
2019-05-11T12:13:34.217Z,11.94
2019-05-11T12:14:34.216Z,11.79
2019-05-11T12:15:34.148Z,11.91
2019-05-11T12:16:34.161Z,12.04
2019-05-11T12:17:34.133Z,11.79
2019-05-11T12:18:34.090Z,11.72
2019-05-11T12:19:34.076Z,11.72
2019-05-11T12:20:34.062Z,11.86
2019-05-11T12:21:34.076Z,11.86
2019-05-11T12:22:34.048Z,11.99
2019-05-11T12:23:34.048Z,12.05
2019-05-11T12:24:34.032Z,12.16
2019-05-11T12:25:37.301Z,12.10
2019-05-11T12:26:35.024Z,12.27
2019-05-11T12:27:33.990Z,12.34
2019-05-11T12:28:33.980Z,12.29
2019-05-11T12:29:33.971Z,12.35
2019-05-11T12:30:33.960Z,12.28
2019-05-11T12:31:33.966Z,12.39
2019-05-11T12:32:33.940Z,12.46
2019-05-11T12:33:33.922Z,12.42
2019-05-11T12:34:33.923Z,12.46
2019-05-11T12:35:33.904Z,12.52
2019-05-11T12:36:33.914Z,12.50
2019-05-11T12:37:33.878Z,12.54
2019-05-11T12:38:33.893Z,12.62
2019-05-11T12:39:33.860Z,12.72
2019-05-11T12:40:33.846Z,12.82
2019-05-11T12:41:33.857Z,12.96
2019-05-11T12:42:33.831Z,12.95
2019-05-11T12:43:33.823Z,12.97
2019-05-11T12:44:33.814Z,13.12
2019-05-11T12:45:33.799Z,13.33
2019-05-11T12:46:36.650Z,13.44
2019-05-11T12:47:33.772Z,13.60
2019-05-11T12:48:33.777Z,13.66
2019-05-11T12:49:33.756Z,13.84
2019-05-11T12:50:33.747Z,13.96
2019-05-11T12:51:33.745Z,13.97
2019-05-11T12:52:33.716Z,14.06
2019-05-11T12:53:33.712Z,13.95
2019-05-11T12:54:34.146Z,13.64
2019-05-11T12:55:33.689Z,13.84
2019-05-11T12:56:33.699Z,14.17
2019-05-11T12:57:33.668Z,14.02
2019-05-11T12:58:33.654Z,13.71
2019-05-11T12:59:33.648Z,13.57
2019-05-11T13:00:33.628Z,13.77
2019-05-11T13:01:33.660Z,13.84